Time;durP1;ratioP1;P1;durP2;ratioP2;P2;SDS_P1;SDS_P2;PMS_P1;PMS_P2;Temp;Humidity;BMP_temperature;BMP_pressure;BME280_temperature;BME280_humidity;BME280_pressure;Samples;Min_cycle;Max_cycle;Signal;HPM_P1;HPM_P2
2023/11/05 00:04:00;;;;;;;5.63;0.95;;;;;;;14.31;100.00;96507.34;4742606;30;20046;-93
2023/11/05 00:07:10;;;;;;;;;;;;;;;15.18;100.00;96648.59;4772654;30;20077;-93
2023/11/05 00:09:52;;;;;;;4.75;1.17;;;;;;;15.08;100.00;96612.81;4826902;29;19934;-93
2023/11/05 00:12:37;;;;;;;3.38;0.73;;;;;;;14.61;100.00;96523.78;4909896;29;20052;-95
2023/11/05 00:22:18;;;;;;;3.78;0.63;;;;;;;14.66;100.00;96492.16;4894475;29;20444;-94
2023/11/05 00:25:55;;;;;;;2.28;0.50;;;;;;;14.62;100.00;96478.19;4922288;29;20532;-94
2023/11/05 00:29:22;;;;;;;7.55;0.60;;;;;;;14.73;100.00;96486.19;4894744;29;20048;-92
2023/11/05 00:32:32;;;;;;;2.80;0.40;;;;;;;14.69;100.00;96481.22;4848701;29;20085;-93
2023/11/05 00:35:57;;;;;;;2.45;0.40;;;;;;;14.79;100.00;96492.91;4815512;29;20505;-93
2023/11/05 00:38:44;;;;;;;3.90;0.85;;;;;;;15.55;100.00;96605.44;4726043;30;20056;-94
2023/11/05 00:41:51;;;;;;;2.92;0.65;;;;;;;15.14;100.00;96515.94;4766151;30;20420;-94
2023/11/05 00:45:12;;;;;;;1.88;0.90;;;;;;;14.70;100.00;96466.84;4763530;30;20070;-94
2023/11/05 00:48:36;;;;;;;1.45;0.77;;;;;;;15.15;100.00;96553.28;4750428;30;20056;-95
2023/11/05 00:51:54;;;;;;;2.67;0.80;;;;;;;14.87;100.00;96511.00;4752601;30;20063;-94
2023/11/05 00:56:36;;;;;;;5.72;0.90;;;;;;;15.33;100.00;96585.75;4762381;30;20094;-94
2023/11/05 00:58:30;;;;;;;3.72;1.00;;;;;;;14.76;100.00;96520.72;4755674;30;20093;-93
2023/11/05 01:01:47;;;;;;;7.68;1.58;;;;;;;15.22;100.00;96585.75;4779501;30;20055;-95
2023/11/05 01:15:04;;;;;;;2.85;0.85;;;;;;;15.28;100.00;96577.22;4790688;29;20382;-94
2023/11/05 01:18:48;;;;;;;4.65;1.00;;;;;;;15.27;100.00;96567.50;4776430;29;20051;-94
2023/11/05 01:21:53;;;;;;;10.90;1.40;;;;;;;14.96;100.00;96502.22;4803612;29;20064;-94
2023/11/05 01:28:27;;;;;;;8.35;1.30;;;;;;;15.26;100.00;96547.06;4668726;30;20082;-94
2023/11/05 01:38:25;;;;;;;13.32;2.15;;;;;;;15.29;100.00;96495.06;4592542;31;20052;-92
2023/11/05 01:41:36;;;;;;;9.73;2.33;;;;;;;15.10;100.00;96436.88;4575782;31;20571;-91
2023/11/05 01:44:37;;;;;;;12.93;2.03;;;;;;;15.60;100.00;96502.28;4580185;31;20392;-94
2023/11/05 01:51:36;;;;;;;13.80;2.08;;;;;;;15.15;100.00;96407.88;4615337;31;20110;-94
2023/11/05 01:54:12;;;;;;;12.32;1.73;;;;;;;15.13;100.00;96397.28;4603015;31;20048;-95
2023/11/05 01:57:35;;;;;;;11.98;2.30;;;;;;;15.79;100.00;96474.81;4607090;31;20117;-92
2023/11/05 02:00:39;;;;;;;;;;;;;;;;;;;;;
2023/11/05 02:03:21;;;;;;;10.02;2.20;;;;;;;15.45;100.00;96417.00;4654975;30;20065;-93
2023/11/05 02:06:14;;;;;;;13.95;1.73;;;;;;;15.20;100.00;96378.88;4681124;30;20502;-92
2023/11/05 02:09:13;;;;;;;12.63;1.77;;;;;;;15.19;100.00;96369.16;4723980;30;20044;-94
2023/11/05 02:15:06;;;;;;;11.88;1.88;;;;;;;15.72;100.00;96445.97;4758569;30;20059;-93
2023/11/05 02:18:03;;;;;;;16.17;1.75;;;;;;;15.78;100.00;96448.97;4829020;29;20188;-92
2023/11/05 02:21:33;;;;;;;;;;;;;;;;;;;;;
2023/11/05 02:23:57;;;;;;;14.20;1.65;;;;;;;15.86;100.00;96456.38;4826555;29;20131;-91
2023/11/05 02:27:05;;;;;;;8.88;1.90;;;;;;;15.30;100.00;96350.34;4873215;29;20645;-92
2023/11/05 02:30:10;;;;;;;15.10;2.33;;;;;;;15.87;100.00;96446.50;4869873;29;20060;-91
2023/11/05 02:32:53;;;;;;;7.10;1.52;;;;;;;15.88;100.00;96454.41;4872066;29;20041;-90
2023/11/05 02:35:43;;;;;;;7.88;1.67;;;;;;;15.53;100.00;96390.44;4857371;29;20069;-93
2023/11/05 02:38:10;;;;;;;10.27;1.17;;;;;;;15.90;100.00;96441.75;4855678;29;20136;-93
2023/11/05 02:44:18;;;;;;;13.68;1.40;;;;;;;15.15;100.00;96290.09;4759137;30;20068;-92
2023/11/05 02:47:11;;;;;;;9.15;1.30;;;;;;;15.23;100.00;96286.78;4756876;30;20048;-93
2023/11/05 02:49:39;;;;;;;13.68;1.88;;;;;;;15.14;100.00;96281.22;4742771;30;20041;-92
2023/11/05 02:52:25;;;;;;;12.35;1.52;;;;;;;15.25;100.00;96282.97;4746571;30;20080;-92
2023/11/05 02:55:06;;;;;;;;;;;;;;;;;;;;;
2023/11/05 03:01:38;;;;;;;;;;;;;;;;;;;;;
2023/11/05 03:04:38;;;;;;;11.98;1.52;;;;;;;15.13;100.00;96276.00;4744858;30;20131;-95
2023/11/05 03:07:54;;;;;;;11.27;1.52;;;;;;;15.57;100.00;96338.25;4723030;30;20052;-93
2023/11/05 03:10:41;;;;;;;14.00;1.70;;;;;;;15.37;100.00;96327.44;4718744;30;20191;-93
2023/11/05 03:17:06;;;;;;;15.23;1.88;;;;;;;15.68;100.00;96383.75;4734164;29;20051;-92
2023/11/05 03:19:38;;;;;;;10.35;1.55;;;;;;;15.93;100.00;96400.41;4778264;29;20046;-93
2023/11/05 03:22:46;;;;;;;7.97;2.08;;;;;;;15.65;100.00;96348.31;4794367;29;20055;-93
2023/11/05 03:25:19;;;;;;;13.32;1.38;;;;;;;15.63;100.00;96353.81;4724606;30;20085;-93
2023/11/05 03:28:34;;;;;;;8.15;2.00;;;;;;;15.25;100.00;96274.94;4774327;29;20110;-94
2023/11/05 03:31:37;;;;;;;16.77;2.38;;;;;;;15.89;100.00;96372.19;4725470;30;20052;-92
2023/11/05 03:38:20;;;;;;;;;;;;;;;;;;;;;
2023/11/05 03:42:08;;;;;;;11.05;1.73;;;;;;;15.13;100.00;96211.75;4667544;30;20054;-92
2023/11/05 03:44:46;;;;;;;8.05;1.30;;;;;;;15.14;100.00;96211.63;4719424;30;20199;-93
2023/11/05 03:47:31;;;;;;;12.38;1.20;;;;;;;15.16;100.00;96232.91;4723467;30;20094;-92
2023/11/05 03:50:13;;;;;;;12.25;1.42;;;;;;;15.72;100.00;96309.31;4715217;30;20079;-92
2023/11/05 03:53:11;;;;;;;14.20;2.00;;;;;;;15.47;100.00;96255.19;4708002;30;20150;-92
2023/11/05 04:03:51;;;;;;;11.95;1.63;;;;;;;15.98;100.00;96320.44;4784882;30;20134;-94
2023/11/05 04:07:15;;;;;;;;;;;;;;;;;;;;;
2023/11/05 04:15:18;;;;;;;12.73;2.42;;;;;;;15.40;100.00;96179.06;4792846;29;20157;-94
2023/11/05 04:33:17;;;;;;;21.15;2.90;;;;;;;15.96;100.00;96269.66;4811380;29;20070;-95
2023/11/05 04:43:34;;;;;;;19.45;2.45;;;;;;;16.37;100.00;96310.72;4823823;29;20083;-95
2023/11/05 04:46:48;;;;;;;18.95;2.05;;;;;;;15.58;100.00;96203.34;4800234;29;20493;-96
2023/11/05 04:49:49;;;;;;;26.27;2.13;;;;;;;16.11;100.00;96294.28;4812658;29;20051;-94
2023/11/05 04:52:38;;;;;;;;;;;;;;;;;;;;;
2023/11/05 04:55:24;;;;;;;22.17;2.40;;;;;;;16.13;100.00;96273.50;4752027;30;20048;-94
2023/11/05 04:58:15;;;;;;;19.48;2.40;;;;;;;15.62;100.00;96186.03;4755580;30;20119;-96
2023/11/05 05:01:08;;;;;;;15.30;1.85;;;;;;;16.14;100.00;96266.34;4762204;30;20051;-93
2023/11/05 05:03:45;;;;;;;13.95;2.30;;;;;;;15.63;100.00;96193.06;4801682;29;20050;-93
2023/11/05 05:06:50;;;;;;;;;;;;;;;;;;;;;
2023/11/05 05:22:05;;;;;;;11.48;1.58;;;;;;;16.69;100.00;96312.28;4744308;30;20063;-94
2023/11/05 05:25:45;;;;;;;15.40;1.65;;;;;;;15.78;100.00;96188.22;4731271;30;20092;-93
2023/11/05 05:28:56;;;;;;;10.77;1.67;;;;;;;16.60;100.00;96337.28;4675422;30;20116;-93
2023/11/05 05:32:10;;;;;;;;;;;;;;;;;;;;;
2023/11/05 05:34:56;;;;;;;18.23;2.85;;;;;;;16.42;100.00;96339.78;4652829;30;20062;-91
2023/11/05 05:38:09;;;;;;;11.52;1.70;;;;;;;16.16;100.00;96292.00;4657504;30;20057;-93
2023/11/05 05:41:12;;;;;;;10.32;2.25;;;;;;;15.88;100.00;96285.56;4595170;31;20437;-94
2023/11/05 05:44:13;;;;;;;4.85;1.02;;;;;;;15.72;100.00;96330.75;4606934;30;20050;-93
2023/11/05 05:47:13;;;;;;;;;;;;;;;16.15;100.00;96434.25;4686554;30;20049;-93
2023/11/05 06:01:07;;;;;;;;;;;;;;;;;;;;;
2023/11/05 06:11:24;;;;;;;9.05;1.50;;;;;;;14.73;100.00;96370.31;4715812;30;20045;-94
2023/11/05 06:21:57;;;;;;;10.23;2.03;;;;;;;15.47;100.00;96493.56;4660667;30;20070;-95
2023/11/05 06:24:58;;;;;;;11.00;1.42;;;;;;;14.61;100.00;96333.88;4645983;31;20051;-96
2023/11/05 06:28:29;;;;;;;11.68;1.75;;;;;;;15.92;100.00;96519.34;4621044;31;20078;-94
2023/11/05 06:45:49;;;;;;;10.98;1.73;;;;;;;15.93;100.00;96535.28;4676215;30;20136;-95
2023/11/05 06:48:41;;;;;;;13.25;1.55;;;;;;;16.12;100.00;96550.66;4681787;30;20404;-94
2023/11/05 06:51:08;;;;;;;7.65;2.03;;;;;;;15.68;100.00;96516.84;4723205;30;20141;-96
2023/11/05 06:53:34;;;;;;;11.02;1.42;;;;;;;15.27;100.00;96441.66;4740891;30;20460;-95
2023/11/05 06:56:00;;;;;;;14.55;1.73;;;;;;;15.39;100.00;96479.94;4742474;30;20055;-93
2023/11/05 06:58:37;;;;;;;16.00;2.35;;;;;;;15.66;100.00;96517.00;4726106;30;20523;-94
2023/11/05 07:11:57;;;;;;;8.13;1.60;;;;;;;15.26;100.00;96508.72;4770575;29;20091;-95
2023/11/05 07:14:23;;;;;;;12.95;1.85;;;;;;;15.28;100.00;96526.34;4824429;29;20045;-95
2023/11/05 07:17:30;;;;;;;11.18;1.98;;;;;;;16.06;100.00;96660.25;4855739;29;20065;-93
2023/11/05 07:20:14;;;;;;;10.55;1.70;;;;;;;15.90;100.00;96632.03;4827917;29;20135;-94
2023/11/05 07:22:44;;;;;;;6.70;1.42;;;;;;;15.71;100.00;96597.88;4846796;29;20152;-94
2023/11/05 07:29:59;;;;;;;8.73;1.42;;;;;;;15.72;100.00;96578.16;4832869;29;20041;-94
2023/11/05 07:32:47;;;;;;;6.47;1.88;;;;;;;16.09;100.00;96668.91;4784953;30;20114;-93
2023/11/05 07:35:15;;;;;;;6.15;0.75;;;;;;;15.48;100.00;96580.13;4771859;30;20048;-92
2023/11/05 07:37:54;;;;;;;8.00;1.02;;;;;;;15.32;100.00;96572.50;4784708;30;20057;-92
2023/11/05 07:40:23;;;;;;;5.03;1.02;;;;;;;15.60;100.00;96659.50;4775018;30;20418;-94
2023/11/05 07:42:49;;;;;;;5.20;1.08;;;;;;;15.52;100.00;96662.78;4774208;30;20046;-92
2023/11/05 07:48:47;;;;;;;5.22;0.70;;;;;;;14.95;100.00;96613.78;4698551;30;20093;-94
2023/11/05 07:51:40;;;;;;;2.28;0.68;;;;;;;15.14;100.00;96617.66;4711876;30;20048;-94
2023/11/05 07:54:07;;;;;;;6.15;1.25;;;;;;;15.88;100.00;96725.13;4709628;30;20060;-94
2023/11/05 07:57:19;;;;;;;6.97;1.02;;;;;;;15.51;100.00;96634.28;4726443;30;21491;-93
2023/11/05 08:00:15;;;;;;;13.57;1.42;;;;;;;16.20;100.00;96716.28;4645884;30;20055;-93
2023/11/05 08:03:06;;;;;;;17.70;2.60;;;;;;;15.77;100.00;96644.75;4663355;30;20136;-94
2023/11/05 08:06:31;;;;;;;15.40;2.83;;;;;;;16.15;100.00;96660.31;4676554;30;20047;-96
2023/11/05 08:09:16;;;;;;;15.13;2.40;;;;;;;16.30;100.00;96719.88;4660589;30;20062;-93
2023/11/05 08:11:45;;;;;;;12.30;2.22;;;;;;;16.70;100.00;96738.03;4682525;30;20121;-94
2023/11/05 08:14:11;;;;;;;10.52;1.48;;;;;;;17.16;100.00;96777.09;4674408;30;20053;-93
2023/11/05 08:16:37;;;;;;;6.70;1.83;;;;;;;16.71;100.00;96694.09;4677315;30;20057;-95
2023/11/05 08:19:03;;;;;;;12.07;1.85;;;;;;;17.33;100.00;96759.53;4731431;30;20051;-96
2023/11/05 08:21:29;;;;;;;10.23;1.55;;;;;;;17.44;100.00;96748.69;4775845;30;20549;-95
2023/11/05 08:23:57;;;;;;;13.23;2.13;;;;;;;17.44;100.00;96712.91;4858129;29;20073;-95
2023/11/05 08:26:24;;;;;;;11.85;1.98;;;;;;;17.06;100.00;96681.34;4931097;29;20048;-95
2023/11/05 08:29:04;;;;;;;18.38;2.15;;;;;;;17.38;100.00;96708.91;4930177;29;20053;-96
2023/11/05 08:31:45;;;;;;;15.27;1.83;;;;;;;17.63;100.00;96733.63;4930076;29;20485;-96
2023/11/05 08:41:31;;;;;;;8.52;1.40;;;;;;;18.44;100.00;96825.09;4829434;29;20094;-92
2023/11/05 08:44:00;;;;;;;9.10;1.67;;;;;;;18.31;100.00;96789.53;4820948;29;20108;-93
2023/11/05 08:46:32;;;;;;;8.85;1.55;;;;;;;18.23;100.00;96769.50;4801223;29;20107;-94
2023/11/05 08:48:58;;;;;;;4.95;1.70;;;;;;;18.39;100.00;96746.59;4830599;29;20155;-94
2023/11/05 08:51:40;;;;;;;13.68;2.38;;;;;;;18.62;100.00;96763.34;4817186;29;20055;-95
2023/11/05 09:02:23;;;;;;;6.47;1.70;;;;;;;19.37;100.00;96879.50;4794614;30;20039;-95
2023/11/05 09:08:39;;;;;;;9.40;1.80;;;;;;;18.96;100.00;96779.97;4819792;29;20231;-94
2023/11/05 09:11:07;;;;;;;8.95;1.48;;;;;;;18.84;100.00;96790.00;4862681;29;20057;-93
2023/11/05 09:13:37;;;;;;;6.53;1.15;;;;;;;19.35;100.00;96868.00;4847443;29;20061;-92
2023/11/05 09:16:10;;;;;;;10.18;1.35;;;;;;;19.18;100.00;96839.94;4835814;29;20053;-93
2023/11/05 09:18:40;;;;;;;11.90;1.60;;;;;;;18.62;100.00;96799.19;4839185;29;20077;-93
2023/11/05 09:21:11;;;;;;;10.75;1.90;;;;;;;18.72;100.00;96818.06;4832564;29;20096;-94
2023/11/05 09:23:41;;;;;;;15.10;2.60;;;;;;;19.21;100.00;96866.56;4857271;29;20073;-94
2023/11/05 09:26:14;;;;;;;4.35;1.48;;;;;;;18.71;100.00;96793.94;4832456;29;20110;-95
2023/11/05 09:28:56;;;;;;;8.88;2.30;;;;;;;18.82;100.00;96818.97;4883429;29;20083;-94
2023/11/05 09:31:33;;;;;;;10.27;1.63;;;;;;;18.98;100.00;96834.53;4886433;29;20049;-94
2023/11/05 09:34:02;;;;;;;4.47;0.98;;;;;;;19.02;100.00;96840.50;4884287;29;20045;-93
2023/11/05 09:36:28;;;;;;;7.97;1.17;;;;;;;19.29;100.00;96869.41;4889969;29;20057;-93
2023/11/05 09:39:07;;;;;;;4.50;1.17;;;;;;;19.55;100.00;96929.00;4893400;29;20053;-93
2023/11/05 09:41:45;;;;;;;4.25;1.02;;;;;;;18.74;100.00;96828.69;4887141;29;20052;-93
2023/11/05 09:44:12;;;;;;;7.47;1.10;;;;;;;19.06;100.00;96871.53;4889265;29;20056;-95
2023/11/05 09:46:46;;;;;;;6.13;0.98;;;;;;;19.35;100.00;96887.72;4885832;29;20072;-93
2023/11/05 09:49:19;;;;;;;7.35;1.35;;;;;;;19.86;100.00;96954.00;4888262;29;20215;-94
2023/11/05 09:51:48;;;;;;;9.02;1.58;;;;;;;19.12;100.00;96841.34;4884249;29;20103;-92
2023/11/05 09:54:40;;;;;;;5.68;1.55;;;;;;;19.85;100.00;96946.88;4873244;29;20048;-94
2023/11/05 09:57:07;;;;;;;3.95;1.40;;;;;;;19.52;100.00;96882.59;4886903;29;20052;-92
2023/11/05 09:59:33;;;;;;;4.28;1.30;;;;;;;19.68;100.00;96923.31;4885374;29;20546;-92
2023/11/05 10:02:05;;;;;;;3.40;1.10;;;;;;;19.41;100.00;96829.69;4884846;29;20040;-93
2023/11/05 10:04:43;;;;;;;6.18;0.85;;;;;;;19.89;100.00;96899.75;4901661;29;20048;-94
2023/11/05 10:07:17;;;;;;;11.23;1.60;;;;;;;20.03;84.82;96930.78;4886078;29;20041;-94
2023/11/05 10:09:44;;;;;;;7.88;0.88;;;;;;;19.67;84.65;96873.09;4888174;29;20036;-93
2023/11/05 10:12:16;;;;;;;13.52;2.17;;;;;;;19.94;72.10;96901.16;4900087;29;20056;-94
2023/11/05 10:14:47;;;;;;;4.53;1.20;;;;;;;19.43;71.10;96828.56;4912194;29;20048;-94
2023/11/05 10:17:18;;;;;;;7.25;1.52;;;;;;;19.55;69.64;96877.75;4914439;29;20139;-94
2023/11/05 10:19:48;;;;;;;5.85;0.85;;;;;;;19.15;68.06;96818.63;4923814;29;20055;-92
2023/11/05 10:22:38;;;;;;;4.40;0.93;;;;;;;19.51;68.31;96857.47;4931517;29;20102;-93
2023/11/05 10:25:15;;;;;;;5.63;1.60;;;;;;;19.55;68.08;96866.97;4920993;29;20620;-93
2023/11/05 10:27:47;;;;;;;2.67;0.95;;;;;;;20.00;65.61;96927.56;4911496;29;20044;-95
2023/11/05 10:30:19;;;;;;;6.10;1.17;;;;;;;19.56;63.11;96854.34;4916143;29;20035;-93
2023/11/05 10:32:51;;;;;;;8.20;1.25;;;;;;;19.61;61.46;96850.22;4920533;29;20052;-93
2023/11/05 10:35:30;;;;;;;8.13;0.93;;;;;;;19.88;59.36;96935.78;4917231;29;20070;-93
2023/11/05 10:37:57;;;;;;;6.60;1.33;;;;;;;19.92;58.10;96954.41;4911253;29;20059;-94
2023/11/05 10:40:33;;;;;;;3.15;0.85;;;;;;;19.56;56.12;96847.13;4914314;29;20548;-95
2023/11/05 10:43:04;;;;;;;4.00;0.60;;;;;;;20.13;55.83;96962.31;4924974;29;20142;-94
2023/11/05 10:45:31;;;;;;;3.58;0.60;;;;;;;20.07;56.58;96961.03;4918702;29;20070;-93
2023/11/05 10:48:02;;;;;;;4.22;0.77;;;;;;;19.83;55.14;96935.38;4932964;29;20051;-94
2023/11/05 10:50:30;;;;;;;2.83;1.23;;;;;;;19.87;54.78;96909.81;4924105;29;20043;-94
2023/11/05 10:52:58;;;;;;;4.95;0.93;;;;;;;19.57;56.13;96866.84;4915179;29;20047;-91
2023/11/05 10:55:34;;;;;;;2.35;0.95;;;;;;;20.18;54.12;96995.94;4916656;29;20048;-94
2023/11/05 10:58:06;;;;;;;2.80;0.40;;;;;;;19.49;57.93;96859.47;4918404;29;20039;-92
2023/11/05 11:01:05;;;;;;;4.13;0.57;;;;;;;19.77;52.23;96935.09;4922382;29;20044;-93
2023/11/05 11:03:33;;;;;;;2.58;0.45;;;;;;;19.53;53.52;96876.22;4911595;29;20044;-93
2023/11/05 11:06:04;;;;;;;1.50;0.45;;;;;;;19.72;52.84;96924.75;4924227;29;20048;-94
2023/11/05 11:09:06;;;;;;;6.30;1.00;;;;;;;19.56;52.62;96878.59;4913155;29;20040;-95
2023/11/05 11:14:28;;;;;;;1.45;0.50;;;;;;;20.24;53.60;96967.53;4924332;29;20040;-92
2023/11/05 11:17:39;;;;;;;2.25;0.60;;;;;;;19.68;51.83;96862.13;4916196;29;20040;-94
2023/11/05 11:20:19;;;;;;;2.17;0.60;;;;;;;19.73;52.38;96904.88;4919770;29;20044;-94
2023/11/05 11:22:59;;;;;;;3.72;0.80;;;;;;;19.30;51.99;96863.06;4931048;29;20571;-95
2023/11/05 11:25:33;;;;;;;2.40;0.40;;;;;;;19.49;53.84;96881.88;4914305;29;20132;-91
2023/11/05 11:28:20;;;;;;;3.53;0.43;;;;;;;20.23;50.62;96988.28;4917964;29;20387;-92
2023/11/05 11:31:00;;;;;;;3.08;0.60;;;;;;;19.57;51.03;96909.97;4920874;29;20044;-91
2023/11/05 11:33:45;;;;;;;2.45;0.60;;;;;;;20.17;50.17;97013.16;4928156;29;20056;-92
2023/11/05 11:36:19;;;;;;;1.83;0.40;;;;;;;19.64;49.76;96890.38;4907381;29;20187;-93
2023/11/05 11:38:57;;;;;;;4.85;0.55;;;;;;;20.05;49.39;96995.41;4896218;29;20048;-94
2023/11/05 11:41:36;;;;;;;3.85;0.55;;;;;;;19.62;48.33;96902.31;4930488;29;20114;-93
2023/11/05 11:44:34;;;;;;;2.30;0.50;;;;;;;20.24;49.04;97027.75;4905951;29;20506;-92
2023/11/05 11:47:15;;;;;;;4.80;0.63;;;;;;;20.15;49.33;97004.34;4896152;29;20044;-94
2023/11/05 11:49:50;;;;;;;2.95;0.77;;;;;;;19.75;49.55;96934.41;4923259;29;20060;-91
2023/11/05 11:52:18;;;;;;;3.15;0.75;;;;;;;20.03;45.08;97018.97;4908685;29;20052;-94
2023/11/05 11:54:48;;;;;;;1.83;0.35;;;;;;;19.79;45.40;96971.72;4905998;29;20130;-93
2023/11/05 12:00:20;;;;;;;2.10;0.73;;;;;;;19.77;45.47;96964.78;4852278;29;19936;-93
2023/11/05 12:03:14;;;;;;;;;;;;;;;;;;;;;
2023/11/05 12:05:41;;;;;;;4.45;0.60;;;;;;;20.07;44.74;97029.34;4864709;29;20052;-93
2023/11/05 12:08:08;;;;;;;2.58;0.70;;;;;;;20.48;45.19;97050.75;4854743;29;20056;-92
2023/11/05 12:10:34;;;;;;;2.65;0.38;;;;;;;20.07;45.95;96978.06;4866075;29;20148;-92
2023/11/05 12:13:18;;;;;;;3.17;0.40;;;;;;;20.55;45.71;97069.91;4854801;29;20086;-93
2023/11/05 12:15:50;;;;;;;2.45;0.50;;;;;;;19.80;45.15;96978.84;4850736;29;20161;-95
2023/11/05 12:18:18;;;;;;;0.85;0.43;;;;;;;19.93;45.05;96991.16;4852316;29;20045;-93
2023/11/05 12:20:48;;;;;;;2.35;0.65;;;;;;;19.64;46.87;96971.25;4860308;29;20057;-95
2023/11/05 12:23:19;;;;;;;2.40;0.45;;;;;;;19.55;43.68;97015.25;4857150;29;20462;-92
2023/11/05 12:26:04;;;;;;;3.33;0.40;;;;;;;20.07;45.57;97031.19;4921433;29;20052;-93
2023/11/05 12:28:32;;;;;;;3.05;1.25;;;;;;;19.73;46.05;96969.59;4922137;29;20043;-92
2023/11/05 12:30:59;;;;;;;12.95;1.70;;;;;;;19.93;46.25;96999.25;4932256;29;20153;-94
2023/11/05 12:33:27;;;;;;;1.63;0.40;;;;;;;20.07;45.69;97056.31;4905985;29;20048;-91
2023/11/05 12:35:55;;;;;;;2.47;0.90;;;;;;;19.89;44.67;97010.34;4908781;29;20055;-93
2023/11/05 12:38:27;;;;;;;0.68;0.30;;;;;;;20.27;44.20;97086.84;4917636;29;20044;-93
2023/11/05 12:40:53;;;;;;;1.30;0.47;;;;;;;20.36;44.98;97085.13;4913077;29;20047;-93
2023/11/05 12:46:30;;;;;;;1.42;0.28;;;;;;;19.81;42.47;97060.59;4908612;29;20044;-92
2023/11/05 12:49:01;;;;;;;1.45;0.20;;;;;;;20.19;42.02;97070.53;4910661;29;20163;-92
2023/11/05 12:51:30;;;;;;;4.63;0.55;;;;;;;19.58;42.18;96976.38;4909645;29;20048;-93
2023/11/05 12:53:56;;;;;;;1.15;0.40;;;;;;;19.59;41.94;97024.78;4907855;29;20052;-93
2023/11/05 12:56:22;;;;;;;1.33;0.30;;;;;;;19.63;43.14;96995.69;4908387;29;20052;-92
2023/11/05 12:58:49;;;;;;;2.28;0.40;;;;;;;20.33;42.28;97108.88;4904367;29;20055;-94
2023/11/05 13:01:21;;;;;;;0.80;0.35;;;;;;;19.50;44.21;97002.22;4904491;29;20430;-91
2023/11/05 13:03:49;;;;;;;0.57;0.20;;;;;;;19.82;44.80;97014.59;4933809;29;20048;-93
2023/11/05 13:06:26;;;;;;;1.00;0.30;;;;;;;20.40;44.75;97100.06;4903364;29;20048;-92
2023/11/05 13:09:03;;;;;;;2.38;0.30;;;;;;;19.76;43.62;97015.19;4908435;29;20047;-94
2023/11/05 13:11:32;;;;;;;1.27;0.60;;;;;;;19.96;43.94;97066.44;4906397;29;20052;-93
2023/11/05 13:13:58;;;;;;;1.38;0.50;;;;;;;19.86;43.18;97050.22;4918993;29;20048;-94
2023/11/05 13:16:29;;;;;;;1.20;0.30;;;;;;;19.56;44.05;97008.03;4907534;29;20041;-92
2023/11/05 13:18:55;;;;;;;1.95;0.40;;;;;;;20.13;43.27;97105.34;4912940;29;20044;-94
2023/11/05 13:21:22;;;;;;;1.90;0.47;;;;;;;20.19;45.10;97120.94;4911914;29;20551;-93
2023/11/05 13:23:56;;;;;;;1.23;0.40;;;;;;;19.96;42.93;97125.78;4922363;29;20070;-94
2023/11/05 13:26:23;;;;;;;3.60;0.80;;;;;;;20.04;43.89;97107.06;4921989;29;20051;-92
2023/11/05 13:28:49;;;;;;;2.83;0.50;;;;;;;19.92;43.37;97113.56;4918769;29;20410;-93
2023/11/05 13:31:18;;;;;;;1.40;0.63;;;;;;;19.97;45.17;97103.19;4913706;29;20040;-94
2023/11/05 13:33:48;;;;;;;1.45;0.40;;;;;;;20.19;42.87;97146.13;4909582;29;20051;-92
2023/11/05 13:36:18;;;;;;;3.85;0.30;;;;;;;20.05;43.25;97151.91;4918885;29;20127;-92
2023/11/05 13:38:52;;;;;;;1.77;0.40;;;;;;;19.94;42.93;97135.84;4915741;29;20051;-93
2023/11/05 13:41:25;;;;;;;0.98;0.40;;;;;;;19.92;42.37;97162.13;4938532;29;20036;-92
2023/11/05 13:43:51;;;;;;;2.25;0.30;;;;;;;19.78;43.16;97145.34;4916741;29;20043;-93
2023/11/05 13:46:17;;;;;;;1.92;0.40;;;;;;;20.03;42.94;97172.78;4918397;29;20093;-92
2023/11/05 13:48:46;;;;;;;3.92;0.30;;;;;;;20.10;43.89;97160.44;4938507;29;20080;-93
2023/11/05 13:51:13;;;;;;;2.83;0.30;;;;;;;19.38;42.48;97045.59;4918118;29;20036;-92
2023/11/05 13:53:41;;;;;;;1.15;0.45;;;;;;;19.57;43.28;97060.97;4928805;29;20529;-94
2023/11/05 13:56:09;;;;;;;1.33;0.40;;;;;;;20.05;42.52;97151.91;4902824;29;20126;-93
2023/11/05 13:58:35;;;;;;;0.80;0.25;;;;;;;19.80;42.55;97110.13;4940017;29;21175;-92
2023/11/05 14:01:01;;;;;;;3.83;0.40;;;;;;;20.04;42.82;97172.66;4915250;29;20040;-94
2023/11/05 14:03:31;;;;;;;3.08;0.65;;;;;;;19.71;44.96;97092.94;4936230;29;20043;-94
2023/11/05 14:06:02;;;;;;;3.08;0.63;;;;;;;19.17;43.50;97078.00;4926350;29;20134;-93
2023/11/05 14:08:29;;;;;;;4.72;0.70;;;;;;;19.86;43.93;97185.97;4923598;29;20128;-93
2023/11/05 14:10:55;;;;;;;1.13;0.47;;;;;;;19.62;45.52;97131.50;4914358;29;20127;-93
2023/11/05 14:13:38;;;;;;;2.63;0.50;;;;;;;19.75;43.68;97179.81;4924987;29;20060;-95
2023/11/05 14:16:13;;;;;;;4.10;0.90;;;;;;;19.44;44.18;97142.09;4911159;29;20040;-92
2023/11/05 14:18:44;;;;;;;2.63;0.30;;;;;;;19.27;45.30;97136.34;4915331;29;20048;-92
2023/11/05 14:21:21;;;;;;;4.82;0.38;;;;;;;19.90;45.18;97218.91;4917985;29;20671;-93
2023/11/05 14:23:49;;;;;;;3.35;0.40;;;;;;;19.80;45.70;97235.06;4922122;29;20130;-92
2023/11/05 14:26:17;;;;;;;2.47;0.30;;;;;;;19.71;45.99;97227.78;4916675;29;20039;-94
2023/11/05 14:28:46;;;;;;;2.65;0.43;;;;;;;19.63;45.81;97190.69;4923235;29;20138;-92
2023/11/05 14:31:14;;;;;;;2.40;0.38;;;;;;;19.03;45.52;97115.13;4918123;29;20055;-93
2023/11/05 14:33:43;;;;;;;1.38;0.40;;;;;;;19.56;44.50;97213.81;4924011;29;20052;-91
2023/11/05 14:36:09;;;;;;;1.50;0.55;;;;;;;18.93;44.49;97116.06;4924533;29;20083;-94
2023/11/05 14:38:41;;;;;;;3.72;0.47;;;;;;;19.11;44.06;97129.78;4924016;29;20075;-94
2023/11/05 14:41:26;;;;;;;1.25;0.45;;;;;;;19.14;45.24;97129.50;4923239;29;20040;-94
2023/11/05 14:43:57;;;;;;;2.08;0.60;;;;;;;19.69;45.42;97210.84;4909528;29;20068;-94
2023/11/05 14:46:27;;;;;;;3.90;1.40;;;;;;;18.88;44.10;97163.09;4919094;29;20387;-93
2023/11/05 14:48:58;;;;;;;1.48;0.30;;;;;;;18.89;45.13;97131.66;4928378;29;20052;-96
2023/11/05 14:51:28;;;;;;;4.18;0.90;;;;;;;19.13;44.97;97187.06;4909062;29;20044;-96
2023/11/05 14:53:59;;;;;;;1.45;0.55;;;;;;;18.80;46.98;97138.69;4907855;29;20115;-92
2023/11/05 14:56:25;;;;;;;1.42;0.43;;;;;;;19.16;44.78;97243.38;4908043;29;20048;-92
2023/11/05 14:59:06;;;;;;;1.42;0.50;;;;;;;19.12;45.13;97241.94;4918483;29;20410;-92
2023/11/05 15:01:51;;;;;;;3.28;0.63;;;;;;;18.47;44.77;97153.16;4927775;29;20147;-93
2023/11/05 15:04:20;;;;;;;2.97;0.50;;;;;;;18.43;46.40;97173.25;4947570;29;20036;-93
2023/11/05 15:06:58;;;;;;;2.50;0.40;;;;;;;18.39;45.48;97152.94;4926446;29;20116;-95
2023/11/05 15:09:42;;;;;;;0.85;0.45;;;;;;;18.41;45.90;97178.78;4930732;29;20044;-93
2023/11/05 15:12:12;;;;;;;3.47;0.63;;;;;;;18.31;46.63;97174.31;4922884;29;20056;-94
2023/11/05 15:14:40;;;;;;;3.65;0.75;;;;;;;18.63;46.49;97231.66;4910970;29;20124;-93
2023/11/05 15:17:14;;;;;;;1.73;0.40;;;;;;;18.15;46.55;97172.03;4903731;29;20147;-93
2023/11/05 15:19:49;;;;;;;3.85;0.68;;;;;;;18.06;47.13;97161.06;4889336;29;20398;-92
2023/11/05 15:22:15;;;;;;;0.93;0.40;;;;;;;18.68;47.26;97275.19;4892273;29;20044;-92
2023/11/05 15:24:41;;;;;;;4.40;0.43;;;;;;;18.28;47.12;97194.22;4901857;29;20123;-94
2023/11/05 15:27:19;;;;;;;2.47;0.38;;;;;;;18.08;46.73;97185.13;4906753;29;20045;-94
2023/11/05 15:29:52;;;;;;;2.75;0.40;;;;;;;18.30;47.63;97224.56;4872518;29;20116;-92
2023/11/05 15:32:22;;;;;;;2.42;0.50;;;;;;;18.88;47.66;97296.94;4879379;29;20068;-93
2023/11/05 15:34:56;;;;;;;7.35;0.77;;;;;;;18.67;48.09;97304.94;4887986;29;20124;-91
2023/11/05 15:44:51;;;;;;;1.58;0.40;;;;;;;17.97;48.05;97188.69;4824470;29;20085;-94
2023/11/05 16:01:47;;;;;;;3.67;0.50;;;;;;;17.99;50.04;97306.94;4726917;30;20051;-95
2023/11/05 16:04:45;;;;;;;3.42;0.70;;;;;;;18.10;50.33;97352.63;4726928;30;20064;-92
2023/11/05 16:07:14;;;;;;;3.25;1.17;;;;;;;17.69;50.61;97305.66;4729051;30;20052;-95
2023/11/05 16:10:01;;;;;;;3.13;0.80;;;;;;;17.53;52.23;97281.84;4730966;30;20095;-93
2023/11/05 16:12:27;;;;;;;6.13;1.15;;;;;;;17.03;52.18;97247.22;4754884;30;20060;-94
2023/11/05 16:15:13;;;;;;;3.60;0.70;;;;;;;17.75;51.53;97337.44;4739805;30;20116;-95
2023/11/05 16:17:39;;;;;;;2.88;0.95;;;;;;;17.61;53.37;97352.00;4759160;30;20097;-95
2023/11/05 16:24:04;;;;;;;1.85;0.50;;;;;;;17.81;53.76;97393.44;4771690;29;20119;-92